Time;durP1;ratioP1;P1;durP2;ratioP2;P2;SDS_P1;SDS_P2;PMS_P1;PMS_P2;Temp;Humidity;BMP_temperature;BMP_pressure;BME280_temperature;BME280_humidity;BME280_pressure;Samples;Min_cycle;Max_cycle;Signal;HPM_P1;HPM_P2
2022/12/03 00:00:12;;;;;;;21.23;13.93;;;3.80;99.90;;;;;;4824434;29;20475;-62
2022/12/03 00:02:40;;;;;;;21.57;14.43;;;3.70;99.90;;;;;;4823988;29;20889;-62
2022/12/03 00:05:09;;;;;;;22.57;14.33;;;3.70;99.90;;;;;;4838815;29;20591;-62
2022/12/03 00:07:37;;;;;;;22.23;13.40;;;3.70;99.90;;;;;;4842113;29;20478;-62
2022/12/03 00:10:09;;;;;;;23.27;14.27;;;3.60;99.90;;;;;;4842156;29;20978;-62
2022/12/03 00:12:37;;;;;;;20.37;13.37;;;3.70;99.90;;;;;;4842199;29;20482;-62
2022/12/03 00:15:06;;;;;;;20.87;13.93;;;3.70;99.90;;;;;;4841316;29;20483;-63
2022/12/03 00:17:34;;;;;;;21.17;14.10;;;3.70;99.90;;;;;;4842120;29;20497;-61
2022/12/03 00:20:02;;;;;;;22.00;14.13;;;3.70;99.90;;;;;;4842059;29;20476;-62
2022/12/03 00:22:30;;;;;;;27.27;15.63;;;3.70;99.90;;;;;;4842095;29;20475;-61
2022/12/03 00:24:58;;;;;;;22.00;13.83;;;3.70;99.90;;;;;;4841573;29;20494;-62
2022/12/03 00:27:28;;;;;;;25.37;14.87;;;3.70;99.90;;;;;;4841625;29;20530;-61
2022/12/03 00:29:56;;;;;;;22.87;14.07;;;3.70;99.90;;;;;;4841925;29;20488;-62
2022/12/03 00:32:24;;;;;;;20.77;14.67;;;3.60;99.90;;;;;;4840759;29;20536;-62
2022/12/03 00:34:52;;;;;;;24.30;14.17;;;3.60;99.90;;;;;;4841997;29;21017;-62
2022/12/03 00:37:20;;;;;;;22.40;14.13;;;3.60;99.90;;;;;;4835764;29;20472;-62
2022/12/03 00:39:49;;;;;;;19.37;13.43;;;3.50;99.90;;;;;;4841653;29;20483;-62
2022/12/03 00:42:17;;;;;;;22.87;14.57;;;3.60;99.90;;;;;;4841673;29;20492;-62
2022/12/03 00:44:46;;;;;;;23.67;13.63;;;3.60;99.90;;;;;;4841479;29;20502;-62
2022/12/03 00:47:14;;;;;;;22.63;14.87;;;3.70;99.90;;;;;;4842179;29;20817;-62
2022/12/03 00:49:42;;;;;;;21.33;14.23;;;3.60;99.90;;;;;;4841831;29;20484;-62
2022/12/03 00:52:10;;;;;;;23.83;14.40;;;3.60;99.90;;;;;;4841493;29;20472;-62
2022/12/03 00:54:38;;;;;;;22.00;13.60;;;3.60;99.90;;;;;;4841564;29;20491;-63
2022/12/03 00:57:06;;;;;;;20.90;13.77;;;3.60;99.90;;;;;;4848661;29;20487;-62
2022/12/03 00:59:34;;;;;;;22.93;13.43;;;3.50;99.90;;;;;;4841459;29;20536;-62
2022/12/03 01:02:04;;;;;;;21.80;14.30;;;3.50;99.90;;;;;;4841173;29;20485;-62
2022/12/03 01:04:32;;;;;;;21.23;14.20;;;3.50;99.90;;;;;;4841532;29;20590;-62
2022/12/03 01:07:00;;;;;;;23.87;14.40;;;3.50;99.90;;;;;;4841468;29;20466;-62
2022/12/03 01:09:28;;;;;;;23.03;12.70;;;3.50;99.90;;;;;;4841385;29;20476;-62
2022/12/03 01:11:56;;;;;;;22.33;14.13;;;3.40;99.90;;;;;;4841650;29;20472;-62
2022/12/03 01:14:24;;;;;;;20.13;13.57;;;3.40;99.90;;;;;;4841566;29;21036;-60
2022/12/03 01:16:52;;;;;;;23.83;13.37;;;3.40;99.90;;;;;;4841872;29;20475;-62
2022/12/03 01:19:23;;;;;;;22.10;13.83;;;3.40;99.90;;;;;;4841838;29;20482;-62
2022/12/03 01:21:52;;;;;;;22.30;13.80;;;3.40;99.90;;;;;;4841636;29;20876;-62
2022/12/03 01:24:20;;;;;;;20.60;14.00;;;3.40;99.90;;;;;;4841574;29;20541;-62
2022/12/03 01:26:48;;;;;;;21.17;13.60;;;3.40;99.90;;;;;;4851311;29;20461;-62
2022/12/03 01:29:16;;;;;;;22.40;14.20;;;3.40;99.90;;;;;;4844877;29;20836;-62
2022/12/03 01:34:31;;;;;;;20.20;12.67;;;3.40;99.90;;;;;;4844553;29;20487;-61
2022/12/03 01:36:59;;;;;;;19.17;12.90;;;3.40;99.90;;;;;;4844627;29;20476;-62
2022/12/03 01:39:27;;;;;;;23.77;14.13;;;3.30;99.90;;;;;;4844461;29;20525;-62
2022/12/03 01:41:57;;;;;;;24.80;15.00;;;3.30;99.90;;;;;;4844453;29;20536;-62
2022/12/03 01:44:28;;;;;;;23.33;13.90;;;3.30;99.90;;;;;;4844340;29;20502;-62
2022/12/03 01:46:58;;;;;;;23.97;13.90;;;3.30;99.90;;;;;;4844644;29;20474;-62
2022/12/03 01:49:29;;;;;;;22.70;14.30;;;3.30;99.90;;;;;;4844308;29;20480;-61
2022/12/03 01:51:59;;;;;;;23.20;14.30;;;3.40;99.90;;;;;;4844643;29;20473;-62
2022/12/03 01:54:33;;;;;;;23.43;14.87;;;3.30;99.90;;;;;;4844112;29;20478;-62
2022/12/03 01:57:01;;;;;;;25.03;14.40;;;3.30;99.90;;;;;;4851638;29;20485;-62
2022/12/03 01:59:35;;;;;;;24.27;14.83;;;3.30;99.90;;;;;;4844304;29;20548;-62
2022/12/03 02:02:12;;;;;;;21.07;13.40;;;3.20;99.90;;;;;;4843826;29;20507;-61
2022/12/03 02:04:40;;;;;;;19.23;13.00;;;3.30;99.90;;;;;;4844337;29;20910;-62
2022/12/03 02:07:24;;;;;;;20.97;13.90;;;3.50;99.90;;;;;;4844127;29;20809;-62
2022/12/03 02:09:53;;;;;;;21.07;14.00;;;3.40;99.90;;;;;;4844342;29;20579;-62
2022/12/03 02:12:27;;;;;;;21.33;13.40;;;3.40;99.90;;;;;;4844186;29;20478;-62
2022/12/03 02:14:55;;;;;;;22.73;14.83;;;3.30;99.90;;;;;;4843989;29;20489;-62
2022/12/03 02:17:25;;;;;;;22.17;14.50;;;3.30;99.90;;;;;;4844058;29;20466;-62
2022/12/03 02:19:54;;;;;;;20.17;12.77;;;3.30;99.90;;;;;;4843987;29;20473;-62
2022/12/03 02:22:32;;;;;;;22.37;13.37;;;3.30;99.90;;;;;;4843968;29;20510;-61
2022/12/03 02:25:14;;;;;;;21.17;14.03;;;3.40;99.90;;;;;;4843979;29;20553;-62
2022/12/03 02:27:42;;;;;;;23.00;13.63;;;3.40;99.90;;;;;;4843318;29;20478;-63
2022/12/03 02:30:13;;;;;;;23.67;14.17;;;3.40;99.90;;;;;;4825390;29;20487;-56
2022/12/03 02:32:41;;;;;;;23.27;13.97;;;3.30;99.90;;;;;;4838247;29;20895;-62
2022/12/03 02:35:13;;;;;;;19.53;13.07;;;3.30;99.90;;;;;;4843683;29;20537;-62
2022/12/03 02:37:43;;;;;;;23.07;12.80;;;3.30;99.90;;;;;;4842879;29;20478;-62
2022/12/03 02:40:18;;;;;;;23.00;13.70;;;3.30;99.90;;;;;;4825676;29;20494;-62
2022/12/03 02:42:50;;;;;;;21.63;13.63;;;3.30;99.90;;;;;;4838267;29;20982;-62
2022/12/03 02:45:21;;;;;;;23.97;13.13;;;3.20;99.90;;;;;;4843188;29;20856;-62
2022/12/03 02:47:54;;;;;;;23.73;14.83;;;3.20;99.90;;;;;;4841749;29;20477;-62
2022/12/03 02:50:27;;;;;;;25.60;15.07;;;3.20;99.90;;;;;;4843317;29;20493;-61
2022/12/03 02:52:58;;;;;;;21.20;13.70;;;3.20;99.90;;;;;;4843526;29;20487;-62
2022/12/03 02:55:28;;;;;;;21.87;13.20;;;3.20;99.90;;;;;;4843009;29;20482;-62
2022/12/03 02:58:04;;;;;;;23.57;14.23;;;3.20;99.90;;;;;;4843109;29;20477;-62
2022/12/03 03:00:34;;;;;;;23.23;14.77;;;3.10;99.90;;;;;;4842959;29;20482;-62
2022/12/03 03:03:03;;;;;;;23.03;13.77;;;3.10;99.90;;;;;;4837422;29;20492;-61
2022/12/03 03:05:33;;;;;;;24.07;14.70;;;3.10;99.90;;;;;;4843129;29;20490;-62
2022/12/03 03:08:02;;;;;;;27.30;14.27;;;3.00;99.90;;;;;;4843274;29;20478;-62
2022/12/03 03:10:34;;;;;;;26.57;14.73;;;3.00;99.90;;;;;;4842967;29;20487;-62
2022/12/03 03:13:06;;;;;;;22.97;14.13;;;3.00;99.90;;;;;;4843128;29;20488;-62
2022/12/03 03:15:35;;;;;;;23.03;14.10;;;2.90;99.90;;;;;;4843113;29;20484;-61
2022/12/03 03:18:04;;;;;;;24.17;13.90;;;2.90;99.90;;;;;;4843230;29;20529;-62
2022/12/03 03:20:32;;;;;;;24.27;13.53;;;2.90;99.90;;;;;;4843062;29;21029;-62
2022/12/03 03:23:06;;;;;;;23.03;13.67;;;2.80;99.90;;;;;;4842708;29;20473;-62
2022/12/03 03:25:36;;;;;;;26.60;14.57;;;2.90;99.90;;;;;;4842705;29;20923;-62
2022/12/03 03:28:05;;;;;;;25.73;14.30;;;2.90;99.90;;;;;;4842645;29;20526;-62
2022/12/03 03:30:35;;;;;;;27.27;14.20;;;2.90;99.90;;;;;;4842437;29;20478;-62
2022/12/03 03:33:03;;;;;;;24.90;14.87;;;2.90;99.90;;;;;;4842642;29;20805;-62
2022/12/03 03:35:31;;;;;;;25.63;14.33;;;2.80;99.90;;;;;;4842319;29;20482;-62
2022/12/03 03:37:59;;;;;;;26.10;14.13;;;2.80;99.90;;;;;;4842463;29;20501;-62
2022/12/03 03:40:28;;;;;;;25.77;14.07;;;2.70;99.90;;;;;;4842370;29;20494;-62
2022/12/03 03:42:58;;;;;;;23.80;13.60;;;2.70;99.90;;;;;;4842432;29;20472;-62
2022/12/03 03:45:26;;;;;;;26.10;15.70;;;2.80;99.90;;;;;;4842139;29;20488;-61
2022/12/03 03:47:58;;;;;;;26.67;14.53;;;2.80;99.90;;;;;;4842626;29;20549;-62
2022/12/03 03:50:31;;;;;;;23.37;13.90;;;2.80;99.90;;;;;;4841518;29;20900;-62
2022/12/03 03:53:01;;;;;;;27.63;15.20;;;2.70;99.90;;;;;;4842528;29;20970;-62
2022/12/03 03:55:29;;;;;;;28.07;16.30;;;2.70;99.90;;;;;;4842294;29;20533;-62
2022/12/03 03:57:59;;;;;;;23.90;13.70;;;2.60;99.90;;;;;;4840165;29;20482;-62
2022/12/03 04:00:27;;;;;;;25.77;14.37;;;2.60;99.90;;;;;;4824626;29;20486;-62
2022/12/03 04:02:55;;;;;;;25.33;14.73;;;2.60;99.90;;;;;;4833744;29;20475;-62
2022/12/03 04:05:24;;;;;;;23.37;14.13;;;2.80;99.90;;;;;;4832467;29;20485;-62
2022/12/03 04:07:52;;;;;;;25.40;14.93;;;2.70;99.90;;;;;;4841900;29;20496;-62
2022/12/03 04:13:07;;;;;;;27.67;14.77;;;2.80;99.90;;;;;;4841778;29;20484;-62
2022/12/03 04:15:35;;;;;;;27.20;14.60;;;2.70;99.90;;;;;;4841971;29;20872;-62
2022/12/03 04:20:49;;;;;;;26.00;15.83;;;2.60;99.90;;;;;;4842165;29;20485;-62
2022/12/03 04:23:16;;;;;;;28.60;16.07;;;2.60;99.90;;;;;;4842301;29;20534;-62
2022/12/03 04:28:49;;;;;;;27.33;15.27;;;2.60;99.90;;;;;;4839511;29;20481;-61
2022/12/03 04:36:48;;;;;;;27.00;15.07;;;2.60;99.90;;;;;;4841821;29;20864;-62
2022/12/03 04:39:16;;;;;;;28.70;16.23;;;2.60;99.90;;;;;;4841903;29;20474;-62
2022/12/03 04:41:44;;;;;;;26.20;15.80;;;2.70;99.90;;;;;;4841908;29;20481;-62
2022/12/03 04:46:59;;;;;;;30.70;16.10;;;2.50;99.90;;;;;;4829992;29;20497;-62
2022/12/03 04:49:27;;;;;;;29.50;15.60;;;2.60;99.90;;;;;;4838814;29;20482;-61
2022/12/03 04:51:55;;;;;;;24.30;14.93;;;2.50;99.90;;;;;;4842079;29;20489;-62
2022/12/03 04:54:23;;;;;;;30.57;16.10;;;2.60;99.90;;;;;;4841678;29;20481;-62
2022/12/03 04:56:51;;;;;;;29.93;16.97;;;2.50;99.90;;;;;;4841725;29;20505;-62
2022/12/03 04:59:21;;;;;;;30.37;16.43;;;2.50;99.90;;;;;;4841457;29;20478;-62
2022/12/03 05:01:49;;;;;;;31.53;16.27;;;2.50;99.90;;;;;;4844479;29;20485;-61
2022/12/03 05:04:17;;;;;;;28.43;15.67;;;2.50;99.90;;;;;;4845323;29;20478;-62
2022/12/03 05:06:45;;;;;;;28.00;16.17;;;2.50;99.90;;;;;;4844867;29;20501;-62
2022/12/03 05:09:14;;;;;;;30.70;16.63;;;2.50;99.90;;;;;;4845246;29;20484;-62
2022/12/03 05:11:42;;;;;;;30.67;16.47;;;2.60;99.90;;;;;;4844965;29;20477;-62
2022/12/03 05:14:11;;;;;;;30.93;16.73;;;2.50;99.90;;;;;;4844968;29;20832;-62
2022/12/03 05:16:40;;;;;;;32.33;17.13;;;2.50;99.90;;;;;;4845267;29;21079;-62
2022/12/03 05:19:09;;;;;;;28.53;16.00;;;2.50;99.90;;;;;;4844848;29;20488;-61
2022/12/03 05:21:36;;;;;;;31.40;16.67;;;2.50;99.90;;;;;;4845084;29;20480;-62
2022/12/03 05:24:04;;;;;;;27.70;15.73;;;2.50;99.90;;;;;;4845005;29;20520;-62
2022/12/03 05:26:32;;;;;;;29.13;16.17;;;2.60;99.90;;;;;;4844614;29;20466;-62
2022/12/03 05:29:01;;;;;;;29.20;16.27;;;2.60;99.90;;;;;;4844444;29;20563;-62
2022/12/03 05:31:29;;;;;;;29.23;16.17;;;2.60;99.90;;;;;;4843498;29;21026;-62
2022/12/03 05:33:58;;;;;;;29.90;17.07;;;2.70;99.90;;;;;;4844645;29;20532;-62
2022/12/03 05:36:27;;;;;;;32.57;16.93;;;2.70;99.90;;;;;;4844521;29;20484;-61
2022/12/03 05:38:54;;;;;;;28.60;15.53;;;2.70;99.90;;;;;;4844372;29;20472;-62
2022/12/03 05:44:08;;;;;;;28.10;16.23;;;2.70;99.90;;;;;;4844488;29;20492;-62
2022/12/03 05:46:36;;;;;;;30.77;15.67;;;2.70;99.90;;;;;;4844133;29;20472;-62
2022/12/03 05:49:05;;;;;;;30.40;16.80;;;2.60;99.90;;;;;;4844648;29;20462;-62
2022/12/03 05:51:33;;;;;;;30.70;17.27;;;2.60;99.90;;;;;;4835363;29;20843;-62
2022/12/03 05:54:02;;;;;;;31.80;17.67;;;2.60;99.90;;;;;;4827538;29;20479;-62
2022/12/03 05:56:30;;;;;;;31.47;17.17;;;2.60;99.90;;;;;;4851293;29;20472;-62
2022/12/03 05:58:58;;;;;;;36.17;17.57;;;2.60;99.90;;;;;;4844171;29;20478;-62
2022/12/03 06:01:26;;;;;;;32.90;17.20;;;2.60;99.90;;;;;;4843581;29;20493;-62
2022/12/03 06:03:54;;;;;;;35.73;18.73;;;2.70;99.90;;;;;;4835314;29;22197;-62
2022/12/03 06:06:23;;;;;;;33.70;18.33;;;2.60;99.90;;;;;;4829841;29;20517;-62
2022/12/03 06:08:51;;;;;;;33.07;18.83;;;2.60;99.90;;;;;;4826079;29;20498;-62
2022/12/03 06:11:19;;;;;;;28.50;16.27;;;2.60;99.90;;;;;;4833321;29;20476;-62
2022/12/03 06:13:47;;;;;;;31.90;18.00;;;2.60;99.90;;;;;;4843571;29;20500;-62
2022/12/03 06:16:15;;;;;;;34.23;18.40;;;2.60;99.90;;;;;;4836004;29;20461;-62
2022/12/03 06:18:43;;;;;;;34.77;18.03;;;2.50;99.90;;;;;;4837965;29;20826;-62
2022/12/03 06:21:11;;;;;;;32.13;18.10;;;2.50;99.90;;;;;;4833594;29;20542;-62
2022/12/03 06:23:43;;;;;;;34.20;18.73;;;2.60;99.90;;;;;;4834939;29;20565;-63
2022/12/03 06:26:12;;;;;;;30.30;16.77;;;2.50;99.90;;;;;;4841027;29;20888;-62
2022/12/03 06:28:44;;;;;;;35.67;19.43;;;2.60;99.90;;;;;;4840696;29;20503;-62
2022/12/03 06:31:12;;;;;;;37.17;19.23;;;2.50;99.90;;;;;;4832411;29;20820;-62
2022/12/03 06:33:40;;;;;;;36.63;19.70;;;2.50;99.90;;;;;;4836677;29;20484;-62
2022/12/03 06:36:08;;;;;;;33.80;19.90;;;2.50;99.90;;;;;;4835343;29;20878;-62
2022/12/03 06:38:36;;;;;;;36.63;20.20;;;2.60;99.90;;;;;;4834204;29;20963;-62
2022/12/03 06:41:06;;;;;;;37.30;21.57;;;2.50;99.90;;;;;;4828544;29;20835;-62
2022/12/03 06:43:34;;;;;;;36.87;19.90;;;2.50;99.90;;;;;;4831898;29;20502;-62
2022/12/03 06:46:02;;;;;;;37.80;21.23;;;2.40;99.90;;;;;;4833284;29;20960;-62
2022/12/03 06:48:30;;;;;;;35.73;20.07;;;2.40;99.90;;;;;;4836685;29;20575;-62
2022/12/03 06:50:58;;;;;;;38.33;20.27;;;2.40;99.90;;;;;;4834907;29;20472;-62
2022/12/03 06:53:26;;;;;;;38.47;20.93;;;2.40;99.90;;;;;;4825925;29;20481;-61
2022/12/03 06:55:54;;;;;;;37.70;19.57;;;2.30;99.90;;;;;;4849840;29;20476;-61
2022/12/03 06:58:23;;;;;;;40.90;22.30;;;2.30;99.90;;;;;;4843211;29;20481;-62
2022/12/03 07:00:52;;;;;;;38.70;20.57;;;2.30;99.90;;;;;;4838537;29;20481;-62
2022/12/03 07:03:20;;;;;;;38.53;20.60;;;2.30;99.90;;;;;;4837194;29;20976;-62
2022/12/03 07:05:48;;;;;;;35.33;20.37;;;2.30;99.90;;;;;;4833442;29;20570;-62
2022/12/03 07:08:16;;;;;;;39.80;20.17;;;2.30;99.90;;;;;;4834820;29;20533;-62
2022/12/03 07:10:44;;;;;;;35.63;19.70;;;2.20;99.90;;;;;;4831803;29;20854;-62
2022/12/03 07:13:12;;;;;;;38.23;20.33;;;2.10;99.90;;;;;;4825365;29;20482;-62
2022/12/03 07:15:41;;;;;;;34.50;18.70;;;2.00;99.90;;;;;;4839597;29;20481;-62
2022/12/03 07:18:10;;;;;;;39.13;18.93;;;2.00;99.90;;;;;;4843258;29;20530;-62
2022/12/03 07:20:38;;;;;;;36.77;18.67;;;2.00;99.90;;;;;;4843130;29;20513;-62
2022/12/03 07:23:06;;;;;;;32.43;18.93;;;2.00;99.90;;;;;;4828733;29;20486;-62
2022/12/03 07:25:34;;;;;;;36.67;19.53;;;2.00;99.90;;;;;;4840651;29;20464;-62
2022/12/03 07:28:03;;;;;;;34.97;18.33;;;2.00;99.90;;;;;;4843319;29;20497;-62
2022/12/03 07:30:31;;;;;;;35.57;19.30;;;2.00;99.90;;;;;;4842206;29;20489;-62
2022/12/03 07:33:00;;;;;;;36.77;19.73;;;2.00;99.90;;;;;;4831977;29;20474;-62
2022/12/03 07:35:28;;;;;;;37.90;20.00;;;2.00;99.90;;;;;;4842272;29;20477;-61
2022/12/03 07:37:56;;;;;;;37.40;19.93;;;2.00;99.90;;;;;;4842585;29;20481;-62
2022/12/03 07:40:24;;;;;;;36.70;18.57;;;2.10;99.90;;;;;;4842340;29;20488;-61
2022/12/03 07:42:53;;;;;;;37.43;20.70;;;2.10;99.90;;;;;;4842885;29;20838;-62
2022/12/03 07:45:21;;;;;;;40.33;20.37;;;2.00;99.90;;;;;;4841519;29;21017;-62
2022/12/03 07:47:49;;;;;;;37.17;18.03;;;2.10;99.90;;;;;;4842145;29;20491;-62
2022/12/03 07:50:18;;;;;;;39.90;20.50;;;2.10;99.90;;;;;;4842548;29;20470;-62
2022/12/03 07:52:46;;;;;;;34.33;19.07;;;2.10;99.90;;;;;;4842671;29;20600;-62
2022/12/03 07:55:15;;;;;;;33.40;18.17;;;2.00;99.90;;;;;;4846211;29;20470;-61
2022/12/03 07:57:44;;;;;;;36.80;19.63;;;2.10;99.90;;;;;;4845495;29;20470;-62
2022/12/03 08:00:13;;;;;;;38.23;19.70;;;2.00;99.90;;;;;;4831167;29;20843;-62
2022/12/03 08:02:41;;;;;;;34.60;19.17;;;2.00;99.90;;;;;;4842449;29;20487;-62
2022/12/03 08:05:10;;;;;;;35.33;19.60;;;2.00;99.90;;;;;;4842238;29;20468;-62
2022/12/03 08:07:39;;;;;;;35.67;19.60;;;2.10;99.90;;;;;;4842205;29;20473;-62
2022/12/03 08:10:08;;;;;;;33.50;18.80;;;2.00;99.90;;;;;;4842474;29;20897;-62
2022/12/03 08:12:41;;;;;;;31.17;17.80;;;2.00;99.90;;;;;;4838930;29;20485;-62
2022/12/03 08:15:14;;;;;;;37.40;20.83;;;2.00;99.90;;;;;;4839762;29;20988;-62
2022/12/03 08:17:44;;;;;;;34.80;19.30;;;2.10;99.90;;;;;;4842112;29;20484;-62
2022/12/03 08:20:16;;;;;;;31.73;18.77;;;2.10;99.90;;;;;;4832835;29;20872;-62
2022/12/03 08:22:47;;;;;;;37.60;20.00;;;2.00;99.90;;;;;;4835468;29;20473;-58
2022/12/03 08:25:19;;;;;;;39.17;20.50;;;1.90;99.90;;;;;;4838619;29;20468;-62
2022/12/03 08:27:48;;;;;;;32.27;18.70;;;2.00;99.90;;;;;;4842699;29;20826;-61
2022/12/03 08:30:21;;;;;;;34.27;19.13;;;2.10;99.90;;;;;;4841622;29;20480;-62
2022/12/03 08:32:51;;;;;;;32.07;17.90;;;2.10;99.90;;;;;;4842132;29;20481;-62
2022/12/03 08:35:24;;;;;;;33.33;18.53;;;2.00;99.90;;;;;;4844336;29;20525;-61
2022/12/03 08:37:59;;;;;;;38.17;20.03;;;2.30;99.90;;;;;;4848044;29;20466;-62
2022/12/03 08:40:34;;;;;;;31.67;18.40;;;2.10;99.90;;;;;;4848032;29;20899;-61
2022/12/03 08:43:07;;;;;;;31.53;18.60;;;2.20;99.90;;;;;;4848070;29;20998;-61
2022/12/03 08:45:40;;;;;;;31.60;18.07;;;2.10;99.90;;;;;;4845633;29;20503;-62
2022/12/03 08:48:22;;;;;;;36.07;19.30;;;2.20;99.90;;;;;;4847720;29;20564;-62
2022/12/03 08:50:50;;;;;;;36.37;19.40;;;2.20;99.90;;;;;;4848064;29;20476;-62
2022/12/03 08:53:28;;;;;;;30.80;17.97;;;2.20;99.90;;;;;;4847317;29;20476;-62
2022/12/03 08:55:57;;;;;;;31.00;18.43;;;2.20;99.90;;;;;;4852703;29;20483;-62
2022/12/03 08:58:33;;;;;;;36.13;18.63;;;2.10;99.90;;;;;;4847125;29;20491;-61
2022/12/03 09:01:16;;;;;;;39.43;20.37;;;2.10;99.90;;;;;;4847207;29;20541;-62
2022/12/03 09:03:49;;;;;;;31.93;19.00;;;2.10;99.90;;;;;;4843420;29;20970;-62
2022/12/03 09:06:17;;;;;;;32.80;18.70;;;2.20;99.90;;;;;;4847527;29;20570;-62
2022/12/03 09:08:47;;;;;;;33.17;19.67;;;2.30;99.90;;;;;;4847700;29;20856;-62
2022/12/03 09:11:15;;;;;;;36.03;20.20;;;2.10;99.90;;;;;;4847111;29;20495;-62
2022/12/03 09:13:43;;;;;;;32.17;18.70;;;2.20;99.90;;;;;;4841391;29;20495;-61
2022/12/03 09:16:12;;;;;;;31.53;18.30;;;2.10;99.90;;;;;;4843803;29;20567;-62
2022/12/03 09:18:41;;;;;;;31.23;17.90;;;2.10;99.90;;;;;;4846224;29;20481;-62
2022/12/03 09:21:10;;;;;;;35.50;19.47;;;2.40;99.90;;;;;;4847521;29;20486;-62
2022/12/03 09:23:39;;;;;;;34.17;18.67;;;2.40;99.90;;;;;;4847341;29;20504;-62
2022/12/03 09:26:09;;;;;;;34.57;18.53;;;2.40;99.90;;;;;;4847367;29;20464;-62
2022/12/03 09:28:37;;;;;;;36.97;20.33;;;2.60;99.90;;;;;;4843483;29;20469;-62
2022/12/03 09:31:05;;;;;;;35.60;19.07;;;2.40;99.90;;;;;;4847412;29;20999;-62
2022/12/03 09:33:34;;;;;;;33.97;18.77;;;2.30;99.90;;;;;;4847677;29;20559;-62
2022/12/03 09:36:02;;;;;;;32.47;18.00;;;2.40;99.90;;;;;;4847577;29;20476;-62
2022/12/03 09:38:30;;;;;;;35.80;19.60;;;2.40;99.90;;;;;;4847616;29;20481;-61
2022/12/03 09:40:59;;;;;;;37.57;19.60;;;2.40;99.90;;;;;;4847501;29;20483;-61
2022/12/03 09:43:32;;;;;;;30.77;18.00;;;2.40;99.90;;;;;;4846429;29;20477;-62
2022/12/03 09:46:22;;;;;;;35.70;17.17;;;2.50;99.90;;;;;;4840491;29;20861;-62
2022/12/03 09:48:50;;;;;;;34.77;18.40;;;2.40;99.90;;;;;;4844477;29;20493;-61
2022/12/03 09:51:19;;;;;;;31.33;18.27;;;2.30;99.90;;;;;;4844674;29;20571;-62
2022/12/03 09:53:47;;;;;;;36.57;19.40;;;2.30;99.90;;;;;;4844177;29;20477;-62
2022/12/03 09:56:21;;;;;;;34.77;17.97;;;2.30;99.90;;;;;;4844313;29;20480;-62
2022/12/03 09:58:51;;;;;;;30.80;16.97;;;2.30;99.90;;;;;;4844027;29;20469;-62
2022/12/03 10:01:21;;;;;;;30.77;18.37;;;2.40;99.90;;;;;;4842703;29;20489;-62
2022/12/03 10:03:52;;;;;;;34.27;18.63;;;2.50;99.90;;;;;;4841937;29;20477;-62
2022/12/03 10:06:23;;;;;;;33.70;18.20;;;2.40;99.90;;;;;;4844358;29;20480;-62
2022/12/03 10:08:53;;;;;;;31.43;18.07;;;2.40;99.90;;;;;;4843922;29;20498;-62
2022/12/03 10:11:25;;;;;;;33.63;18.47;;;2.50;99.90;;;;;;4844404;29;20886;-62
2022/12/03 10:13:56;;;;;;;34.50;18.83;;;2.40;99.90;;;;;;4843468;29;20477;-62
2022/12/03 10:16:26;;;;;;;32.20;18.73;;;2.40;99.90;;;;;;4825752;29;20497;-62
2022/12/03 10:18:59;;;;;;;34.13;19.40;;;2.50;99.90;;;;;;4834964;29;20999;-62
2022/12/03 10:21:30;;;;;;;34.50;18.20;;;2.50;99.90;;;;;;4844128;29;20497;-62
2022/12/03 10:24:18;;;;;;;32.87;19.57;;;2.60;99.90;;;;;;4843821;29;20470;-62
2022/12/03 10:26:48;;;;;;;32.63;18.47;;;2.60;99.90;;;;;;4840092;29;20489;-61
2022/12/03 10:29:20;;;;;;;29.20;18.20;;;2.70;99.90;;;;;;4842261;29;20818;-62
2022/12/03 10:31:56;;;;;;;33.67;18.43;;;2.60;99.90;;;;;;4841141;29;20505;-62
2022/12/03 10:34:26;;;;;;;36.47;19.17;;;2.70;99.90;;;;;;4839308;29;20487;-62
2022/12/03 10:37:12;;;;;;;31.47;18.33;;;2.70;99.90;;;;;;4826675;29;20530;-53
2022/12/03 10:39:54;;;;;;;32.30;18.73;;;2.70;99.90;;;;;;4823278;29;20842;-52
2022/12/03 10:42:24;;;;;;;34.07;19.03;;;2.80;99.90;;;;;;4823827;29;20486;-53
2022/12/03 10:45:19;;;;;;;33.50;19.07;;;2.80;99.90;;;;;;4821372;29;20490;-54
2022/12/03 10:48:06;;;;;;;33.30;18.60;;;2.90;99.90;;;;;;4822351;29;21038;-54
2022/12/03 10:50:35;;;;;;;34.90;19.00;;;2.90;99.90;;;;;;4822283;29;20924;-53
2022/12/03 10:53:04;;;;;;;33.47;18.53;;;2.90;99.90;;;;;;4821054;29;20545;-55
2022/12/03 10:55:37;;;;;;;32.87;18.93;;;2.90;99.90;;;;;;4822128;29;20481;-53
2022/12/03 10:58:05;;;;;;;33.37;18.27;;;2.90;99.90;;;;;;4823743;29;20530;-52
2022/12/03 11:00:35;;;;;;;32.17;18.43;;;3.00;99.90;;;;;;4820380;29;20484;-54
2022/12/03 11:03:03;;;;;;;38.57;19.00;;;3.00;99.90;;;;;;4820566;29;20513;-56
2022/12/03 11:05:31;;;;;;;29.97;16.97;;;2.90;99.90;;;;;;4821127;29;20490;-52
2022/12/03 11:07:59;;;;;;;34.03;18.27;;;2.90;99.90;;;;;;4821048;29;21022;-56
2022/12/03 11:10:27;;;;;;;30.90;17.20;;;3.00;99.90;;;;;;4820086;29;20586;-53
2022/12/03 11:13:26;;;;;;;31.97;18.57;;;3.00;99.90;;;;;;4821438;29;20530;-54
2022/12/03 11:15:58;;;;;;;32.13;18.83;;;3.00;99.90;;;;;;4820569;29;20489;-54
2022/12/03 11:19:01;;;;;;;33.43;19.20;;;3.00;99.90;;;;;;4821064;29;20469;-54
2022/12/03 11:21:29;;;;;;;29.57;18.43;;;3.00;99.90;;;;;;4820435;29;20918;-54
2022/12/03 11:24:17;;;;;;;33.97;18.37;;;3.00;99.90;;;;;;4820143;29;20550;-55
2022/12/03 11:27:19;;;;;;;29.97;16.87;;;3.10;99.90;;;;;;4819945;29;20537;-53
2022/12/03 11:29:52;;;;;;;34.47;17.67;;;3.10;99.90;;;;;;4782055;29;20511;-55
2022/12/03 11:33:08;;;;;;;30.87;18.07;;;3.20;99.90;;;;;;4781387;29;20494;-52
2022/12/03 11:36:14;;;;;;;30.97;16.87;;;3.20;99.90;;;;;;4814353;29;20999;-54
2022/12/03 11:38:51;;;;;;;29.70;17.87;;;3.30;99.90;;;;;;4820680;29;20517;-56
2022/12/03 11:41:29;;;;;;;28.37;16.73;;;3.30;99.90;;;;;;4820470;29;20526;-54
2022/12/03 11:44:27;;;;;;;27.50;16.30;;;3.20;99.90;;;;;;4820482;29;20485;-56
2022/12/03 11:46:57;;;;;;;26.80;15.80;;;3.20;99.90;;;;;;4820564;29;21030;-54
2022/12/03 11:49:45;;;;;;;29.33;16.80;;;3.10;99.90;;;;;;4820957;29;20528;-52
2022/12/03 11:52:25;;;;;;;29.37;16.50;;;3.20;99.90;;;;;;4822628;29;20469;-55
2022/12/03 11:54:57;;;;;;;31.00;16.80;;;3.10;99.90;;;;;;4822817;29;20482;-53
2022/12/03 11:57:37;;;;;;;30.37;16.93;;;3.20;99.90;;;;;;4820815;29;20850;-56
2022/12/03 12:00:18;;;;;;;26.93;16.60;;;3.10;99.90;;;;;;4819920;29;20474;-54
2022/12/03 12:02:47;;;;;;;29.33;14.90;;;3.00;99.90;;;;;;4820411;29;20480;-54
2022/12/03 12:05:21;;;;;;;26.33;15.07;;;3.10;99.90;;;;;;4819792;29;20840;-54
2022/12/03 12:07:52;;;;;;;27.20;16.30;;;3.00;99.90;;;;;;4819849;29;20557;-53
2022/12/03 12:10:40;;;;;;;28.00;16.93;;;3.00;99.90;;;;;;4818850;29;20528;-53
2022/12/03 12:13:54;;;;;;;28.83;17.27;;;2.90;99.90;;;;;;4819813;29;21003;-53
2022/12/03 12:16:44;;;;;;;27.43;15.43;;;3.00;99.90;;;;;;4819788;29;20485;-53
2022/12/03 12:19:36;;;;;;;29.47;17.07;;;3.20;99.90;;;;;;4821179;29;20512;-55
2022/12/03 12:22:34;;;;;;;28.00;16.37;;;3.10;99.90;;;;;;4819814;29;20525;-55
2022/12/03 12:25:05;;;;;;;26.00;15.07;;;3.20;99.90;;;;;;4782076;29;20487;-53
2022/12/03 12:27:36;;;;;;;26.87;15.67;;;3.10;99.90;;;;;;4810999;29;20489;-56
2022/12/03 12:30:07;;;;;;;25.63;15.50;;;3.10;99.90;;;;;;4819292;29;20478;-56
2022/12/03 12:32:43;;;;;;;26.90;14.97;;;3.10;99.90;;;;;;4818804;29;20485;-53
2022/12/03 12:35:18;;;;;;;27.20;14.70;;;3.10;99.90;;;;;;4820879;29;20978;-54
2022/12/03 12:37:52;;;;;;;25.03;13.87;;;3.10;99.90;;;;;;4820017;29;20639;-55
2022/12/03 12:40:30;;;;;;;23.93;14.20;;;3.10;99.90;;;;;;4820622;29;20474;-54
2022/12/03 12:43:00;;;;;;;24.87;14.57;;;3.10;99.90;;;;;;4819713;29;20481;-53
2022/12/03 12:45:40;;;;;;;23.70;14.43;;;3.00;99.90;;;;;;4818341;29;20488;-54
2022/12/03 12:48:16;;;;;;;21.60;14.10;;;3.10;99.90;;;;;;4820269;29;20885;-55
2022/12/03 12:50:45;;;;;;;26.33;14.60;;;3.10;99.90;;;;;;4821944;29;20501;-54
2022/12/03 12:53:21;;;;;;;23.90;15.13;;;3.20;99.90;;;;;;4822239;29;20488;-53
2022/12/03 12:55:55;;;;;;;26.20;14.63;;;3.20;99.90;;;;;;4819977;29;21004;-53
2022/12/03 12:58:24;;;;;;;27.73;14.87;;;3.20;99.90;;;;;;4819445;29;20472;-51
2022/12/03 13:00:54;;;;;;;25.00;15.17;;;3.10;99.90;;;;;;4818905;29;20551;-54
2022/12/03 13:03:24;;;;;;;23.17;14.13;;;3.00;99.90;;;;;;4820983;29;20476;-54
2022/12/03 13:05:53;;;;;;;26.27;14.43;;;3.20;99.90;;;;;;4820056;29;20481;-54
2022/12/03 13:08:25;;;;;;;24.23;14.83;;;3.20;99.90;;;;;;4819435;29;20478;-53
2022/12/03 13:10:56;;;;;;;29.83;16.20;;;3.30;99.90;;;;;;4819876;29;20506;-53
2022/12/03 13:13:30;;;;;;;25.60;14.93;;;3.20;99.90;;;;;;4820054;29;20492;-54
2022/12/03 13:16:02;;;;;;;25.83;16.00;;;3.30;99.90;;;;;;4819701;29;20482;-56
2022/12/03 13:18:34;;;;;;;24.40;14.23;;;3.20;99.90;;;;;;4818197;29;20480;-53